createdAt,value
2023-08-27T00:02:31.053Z,8.48
2023-08-27T00:05:19.173Z,7.88
2023-08-27T00:08:07.102Z,9.85
2023-08-27T00:10:59.446Z,8.23
2023-08-27T00:13:48.670Z,8.85
2023-08-27T00:16:38.680Z,9.90
2023-08-27T00:19:26.763Z,8.73
2023-08-27T00:22:14.777Z,9.48
2023-08-27T00:25:02.526Z,9.85
2023-08-27T00:27:50.200Z,8.40
2023-08-27T00:30:39.322Z,7.78
2023-08-27T00:33:27.204Z,7.57
2023-08-27T00:36:14.931Z,7.72
2023-08-27T00:39:02.886Z,7.43
2023-08-27T00:41:50.589Z,6.68
2023-08-27T00:44:39.124Z,7.63
2023-08-27T00:47:28.607Z,7.97
2023-08-27T00:50:17.220Z,6.97
2023-08-27T00:53:05.739Z,7.45
2023-08-27T00:55:54.209Z,7.13
2023-08-27T00:58:42.295Z,7.78
2023-08-27T01:01:30.590Z,8.32
2023-08-27T01:04:19.832Z,8.98
2023-08-27T01:07:16.697Z,10.30
2023-08-27T01:10:13.363Z,10.40
2023-08-27T01:13:05.059Z,9.20
2023-08-27T01:16:00.865Z,9.82
2023-08-27T01:18:50.523Z,9.27
2023-08-27T01:21:41.086Z,10.00
2023-08-27T01:24:29.130Z,12.05
2023-08-27T01:27:23.639Z,11.00
2023-08-27T01:30:17.626Z,11.85
2023-08-27T01:33:12.411Z,12.48
2023-08-27T01:36:01.124Z,12.98
2023-08-27T01:38:50.447Z,13.82
2023-08-27T01:41:38.306Z,12.27
2023-08-27T01:44:26.070Z,12.77
2023-08-27T01:47:14.264Z,14.05
2023-08-27T01:50:01.951Z,11.82
2023-08-27T01:52:49.721Z,12.40
2023-08-27T01:55:40.102Z,12.93
2023-08-27T01:58:27.966Z,13.73
2023-08-27T02:01:16.056Z,12.23
2023-08-27T02:04:05.144Z,11.95
2023-08-27T02:06:53.150Z,12.15
2023-08-27T02:09:40.887Z,11.80
2023-08-27T02:12:30.334Z,12.13
2023-08-27T02:15:18.150Z,10.68
2023-08-27T02:18:06.199Z,10.73
2023-08-27T02:20:53.862Z,10.55
2023-08-27T02:23:41.729Z,10.63
2023-08-27T02:26:29.630Z,11.20
2023-08-27T02:29:18.830Z,10.00
2023-08-27T02:32:07.198Z,10.75
2023-08-27T02:34:54.941Z,10.25
2023-08-27T02:37:42.704Z,10.27
2023-08-27T02:40:30.417Z,10.75
2023-08-27T02:43:18.290Z,11.43
2023-08-27T02:46:08.091Z,10.55
2023-08-27T02:48:55.833Z,11.15
2023-08-27T02:51:43.808Z,11.75
2023-08-27T02:54:31.535Z,12.10
2023-08-27T02:57:19.271Z,10.82
2023-08-27T03:00:08.796Z,10.32
2023-08-27T03:02:58.709Z,10.90
2023-08-27T03:05:46.915Z,14.13
2023-08-27T03:08:34.501Z,12.15
2023-08-27T03:11:22.467Z,11.25
2023-08-27T03:14:10.220Z,10.55
2023-08-27T03:16:57.982Z,10.45
2023-08-27T03:19:47.258Z,11.20
2023-08-27T03:22:34.956Z,10.63
2023-08-27T03:25:22.843Z,10.65
2023-08-27T03:28:10.805Z,11.63
2023-08-27T03:30:59.068Z,11.13
2023-08-27T03:33:47.040Z,11.52
2023-08-27T03:36:36.171Z,11.40
2023-08-27T03:39:23.783Z,11.40
2023-08-27T03:42:11.660Z,12.30
2023-08-27T03:45:00.875Z,11.80
2023-08-27T03:47:48.670Z,11.60
2023-08-27T03:50:37.125Z,11.98
2023-08-27T03:53:26.301Z,12.60
2023-08-27T03:56:14.096Z,11.68
2023-08-27T03:59:01.892Z,11.80
2023-08-27T04:01:50.433Z,12.82
2023-08-27T04:04:38.352Z,12.00
2023-08-27T04:07:26.144Z,13.05
2023-08-27T04:10:15.525Z,11.85
2023-08-27T04:13:03.267Z,12.68
2023-08-27T04:16:00.820Z,12.35
2023-08-27T04:18:48.993Z,13.48
2023-08-27T04:21:36.760Z,12.50
2023-08-27T04:24:24.746Z,11.85
2023-08-27T04:27:13.811Z,12.35
2023-08-27T04:30:01.890Z,13.65
2023-08-27T04:32:49.629Z,12.80
2023-08-27T04:35:37.398Z,12.40
2023-08-27T04:38:25.351Z,12.70
2023-08-27T04:41:13.037Z,12.90
2023-08-27T04:44:02.335Z,12.02
2023-08-27T04:46:50.520Z,15.35
2023-08-27T04:49:38.437Z,13.48
2023-08-27T04:52:31.280Z,13.77
2023-08-27T04:55:20.258Z,13.32
2023-08-27T04:58:09.748Z,12.18
2023-08-27T05:00:59.308Z,13.82
2023-08-27T05:03:47.128Z,13.65
2023-08-27T05:06:34.865Z,15.40
2023-08-27T05:09:22.812Z,14.98
2023-08-27T05:12:10.696Z,16.75
2023-08-27T05:14:58.562Z,17.23
2023-08-27T05:17:47.773Z,17.85
2023-08-27T05:20:35.780Z,15.40
2023-08-27T05:23:24.586Z,16.42
2023-08-27T05:26:12.249Z,22.55
2023-08-27T05:28:59.967Z,17.77
2023-08-27T05:31:47.897Z,18.52
2023-08-27T05:34:37.207Z,16.05
2023-08-27T05:37:25.171Z,17.17
2023-08-27T05:40:14.016Z,13.52
2023-08-27T05:43:02.053Z,16.83
2023-08-27T05:45:49.842Z,15.18
2023-08-27T05:48:38.648Z,23.17
2023-08-27T05:51:28.013Z,22.83
2023-08-27T05:54:15.701Z,22.20
2023-08-27T05:57:04.083Z,25.40
2023-08-27T05:59:51.994Z,33.25
2023-08-27T06:02:39.988Z,37.75
2023-08-27T06:05:27.718Z,29.92
2023-08-27T06:08:17.045Z,33.55
2023-08-27T06:11:05.506Z,34.22
2023-08-27T06:13:53.467Z,32.03
2023-08-27T06:16:41.758Z,27.55
2023-08-27T06:19:42.957Z,29.65
2023-08-27T06:22:35.792Z,30.08
2023-08-27T06:25:25.177Z,32.17
2023-08-27T06:28:13.251Z,30.10
2023-08-27T06:31:01.892Z,26.02
2023-08-27T06:33:49.749Z,20.40
2023-08-27T06:36:37.785Z,24.15
2023-08-27T06:39:25.700Z,22.50
2023-08-27T06:42:14.876Z,23.52
2023-08-27T06:45:02.879Z,24.85
2023-08-27T06:47:50.590Z,23.58
2023-08-27T06:50:39.838Z,24.52
2023-08-27T06:53:27.582Z,23.88
2023-08-27T06:56:15.261Z,22.92
2023-08-27T06:59:04.440Z,23.67
2023-08-27T07:01:52.235Z,23.00
2023-08-27T07:04:40.212Z,24.73
2023-08-27T07:07:28.179Z,21.15
2023-08-27T07:10:16.142Z,17.77
2023-08-27T07:13:05.405Z,17.63
2023-08-27T07:15:55.751Z,17.45
2023-08-27T07:18:43.602Z,17.88
2023-08-27T07:21:31.636Z,18.70
2023-08-27T07:24:19.482Z,15.85
2023-08-27T07:27:07.163Z,16.92
2023-08-27T07:29:55.605Z,16.63
2023-08-27T07:32:44.775Z,16.20
2023-08-27T07:35:32.715Z,14.77
2023-08-27T07:38:20.711Z,14.75
2023-08-27T07:41:09.181Z,14.68
2023-08-27T07:43:57.155Z,14.25
2023-08-27T07:46:44.900Z,12.77
2023-08-27T07:49:34.118Z,11.15
2023-08-27T07:52:21.789Z,13.05
2023-08-27T07:55:09.760Z,10.27
2023-08-27T07:57:57.682Z,9.32
2023-08-27T08:00:45.664Z,8.93
2023-08-27T08:03:34.108Z,8.85
2023-08-27T08:06:23.507Z,8.35
2023-08-27T08:09:11.920Z,7.97
2023-08-27T08:11:59.587Z,9.88
2023-08-27T08:14:47.238Z,8.30
2023-08-27T08:17:44.830Z,8.05
2023-08-27T08:20:33.809Z,9.48
2023-08-27T08:23:23.227Z,8.25
2023-08-27T08:26:11.510Z,8.75
2023-08-27T08:28:59.145Z,7.10
2023-08-27T08:31:46.962Z,6.63
2023-08-27T08:34:34.787Z,7.63
2023-08-27T08:37:22.776Z,6.68
2023-08-27T08:40:13.321Z,7.10
2023-08-27T08:43:01.142Z,9.90
2023-08-27T08:45:58.940Z,7.75
2023-08-27T08:48:51.519Z,6.80
2023-08-27T08:51:39.766Z,6.63
2023-08-27T08:54:29.651Z,6.60
2023-08-27T08:57:18.910Z,5.97
2023-08-27T09:00:09.198Z,6.80
2023-08-27T09:02:57.725Z,7.88
2023-08-27T09:05:48.070Z,7.00
2023-08-27T09:08:38.650Z,7.07
2023-08-27T09:11:27.934Z,6.93
2023-08-27T09:14:18.573Z,6.43
2023-08-27T09:17:09.290Z,5.95
2023-08-27T09:19:57.068Z,6.25
2023-08-27T09:22:45.357Z,5.63
2023-08-27T09:25:33.070Z,6.10
2023-08-27T09:28:21.754Z,6.35
2023-08-27T09:31:35.213Z,8.90
2023-08-27T09:34:25.249Z,6.32
2023-08-27T09:37:17.679Z,7.93
2023-08-27T09:40:08.640Z,7.18
2023-08-27T09:43:05.825Z,6.97
2023-08-27T09:45:53.594Z,6.63
2023-08-27T09:48:42.900Z,6.88
2023-08-27T09:51:30.883Z,6.53
2023-08-27T09:54:20.755Z,6.22
2023-08-27T09:57:19.160Z,6.38
2023-08-27T10:00:11.249Z,5.85
2023-08-27T10:02:59.274Z,6.72
2023-08-27T10:05:48.518Z,6.15
2023-08-27T10:08:47.863Z,6.30
2023-08-27T10:11:36.268Z,5.40
2023-08-27T10:14:24.211Z,6.18
2023-08-27T10:17:12.864Z,5.35
2023-08-27T10:20:02.723Z,7.28
2023-08-27T10:22:51.936Z,8.23
2023-08-27T10:25:40.810Z,11.48
2023-08-27T10:28:29.756Z,8.65
2023-08-27T10:31:17.768Z,7.28
2023-08-27T10:34:08.825Z,7.72
2023-08-27T10:37:03.590Z,6.82
2023-08-27T10:39:54.897Z,5.85
2023-08-27T10:42:42.820Z,4.97
2023-08-27T10:45:30.616Z,5.20
2023-08-27T10:48:26.387Z,4.00
2023-08-27T10:51:15.593Z,5.00
2023-08-27T10:54:05.968Z,3.70
2023-08-27T10:56:56.465Z,3.83
2023-08-27T10:59:44.654Z,12.27
2023-08-27T11:02:59.978Z,12.30
2023-08-27T11:05:47.823Z,6.82
2023-08-27T11:08:36.994Z,4.78
2023-08-27T11:11:26.571Z,4.20
2023-08-27T11:14:20.462Z,3.15
2023-08-27T11:17:09.685Z,3.70
2023-08-27T11:19:59.100Z,4.05
2023-08-27T11:22:56.473Z,3.20
2023-08-27T11:25:45.071Z,3.72
2023-08-27T11:28:33.577Z,3.38
2023-08-27T11:31:23.524Z,4.00
2023-08-27T11:34:13.806Z,3.33
2023-08-27T11:37:01.650Z,3.92
2023-08-27T11:39:49.693Z,8.02
2023-08-27T11:42:37.390Z,6.20
2023-08-27T11:45:31.971Z,5.95
2023-08-27T11:48:22.346Z,3.15
2023-08-27T11:51:11.414Z,3.85
2023-08-27T11:54:00.233Z,3.80
2023-08-27T11:56:47.947Z,3.92
2023-08-27T11:59:35.782Z,3.33
2023-08-27T12:02:24.144Z,3.35
2023-08-27T12:05:13.288Z,7.30
2023-08-27T12:08:07.541Z,4.60
2023-08-27T12:13:45.366Z,3.90
2023-08-27T12:16:34.591Z,4.43
2023-08-27T12:19:24.143Z,4.22
2023-08-27T12:22:18.414Z,4.35
2023-08-27T12:25:06.479Z,4.07
2023-08-27T12:27:54.428Z,4.80
2023-08-27T12:30:47.570Z,4.22
2023-08-27T12:33:40.745Z,4.35
2023-08-27T12:36:28.732Z,3.33
2023-08-27T12:39:17.894Z,3.47
2023-08-27T12:42:06.574Z,3.30
2023-08-27T12:44:54.802Z,4.22
2023-08-27T12:47:42.647Z,3.78
2023-08-27T12:50:30.442Z,3.75
2023-08-27T12:53:18.667Z,3.75
2023-08-27T12:56:08.451Z,3.70
2023-08-27T12:58:56.534Z,3.70
2023-08-27T13:01:44.406Z,4.32
2023-08-27T13:04:32.578Z,4.03
2023-08-27T13:07:20.429Z,4.38
2023-08-27T13:10:08.690Z,3.88
2023-08-27T13:12:57.818Z,3.63
2023-08-27T13:15:45.523Z,4.70
2023-08-27T13:18:33.534Z,3.63
2023-08-27T13:21:21.751Z,4.05
2023-08-27T13:24:10.010Z,3.72
2023-08-27T13:26:58.408Z,3.53
2023-08-27T13:29:47.531Z,4.15
2023-08-27T13:32:35.932Z,4.22
2023-08-27T13:35:24.123Z,3.90
2023-08-27T13:38:12.170Z,4.43
2023-08-27T13:41:00.269Z,4.25
2023-08-27T13:43:48.246Z,4.22
2023-08-27T13:46:37.338Z,5.53
2023-08-27T13:49:25.057Z,21.67
2023-08-27T13:52:12.983Z,13.55
2023-08-27T13:55:00.771Z,6.53
2023-08-27T13:57:48.880Z,6.40
2023-08-27T14:00:36.651Z,8.20
2023-08-27T14:03:26.192Z,10.90
2023-08-27T14:06:14.010Z,8.38
2023-08-27T14:09:01.675Z,11.80
2023-08-27T14:11:49.983Z,7.65
2023-08-27T14:14:37.761Z,6.85
2023-08-27T14:17:25.599Z,5.45
2023-08-27T14:20:14.942Z,4.53
2023-08-27T14:23:03.265Z,5.50
2023-08-27T14:25:51.032Z,6.95
2023-08-27T14:28:39.160Z,5.80
2023-08-27T14:31:26.942Z,5.60
2023-08-27T14:34:15.804Z,6.72
2023-08-27T14:37:05.102Z,8.23
2023-08-27T14:39:53.006Z,7.70
2023-08-27T14:42:40.929Z,6.40
2023-08-27T14:45:28.669Z,10.25
2023-08-27T14:48:16.451Z,10.20
2023-08-27T14:51:04.175Z,6.75
2023-08-27T14:53:53.176Z,6.65
2023-08-27T14:56:41.546Z,5.47
2023-08-27T14:59:38.178Z,5.93
2023-08-27T15:02:26.057Z,4.72
2023-08-27T15:05:14.467Z,4.10
2023-08-27T15:08:02.501Z,3.97
2023-08-27T15:10:51.940Z,4.80
2023-08-27T15:13:39.706Z,3.95
2023-08-27T15:16:27.622Z,4.43
2023-08-27T15:19:15.828Z,4.72
2023-08-27T15:22:03.994Z,4.30
2023-08-27T15:24:51.777Z,3.45
2023-08-27T15:27:40.900Z,3.63
2023-08-27T15:30:28.722Z,3.83
2023-08-27T15:33:16.513Z,3.80
2023-08-27T15:36:04.464Z,3.80
2023-08-27T15:38:52.411Z,3.80
2023-08-27T15:41:40.399Z,4.60
2023-08-27T15:44:29.591Z,3.83
2023-08-27T15:47:17.522Z,4.03
2023-08-27T15:50:05.783Z,4.25
2023-08-27T15:52:53.780Z,3.72
2023-08-27T15:55:41.870Z,3.70
2023-08-27T15:58:29.682Z,3.85
2023-08-27T16:01:19.185Z,4.13
2023-08-27T16:04:07.243Z,3.50
2023-08-27T16:06:55.269Z,3.60
2023-08-27T16:09:43.320Z,3.42
2023-08-27T16:12:31.243Z,3.38
2023-08-27T16:15:19.342Z,5.45
2023-08-27T16:18:08.732Z,7.15
2023-08-27T16:20:56.845Z,4.97
2023-08-27T16:23:46.528Z,4.50
2023-08-27T16:26:34.936Z,5.30
2023-08-27T16:29:22.823Z,5.53
2023-08-27T16:32:10.650Z,5.07
2023-08-27T16:34:59.825Z,5.93
2023-08-27T16:37:47.512Z,4.80
2023-08-27T16:40:37.133Z,7.07
2023-08-27T16:43:24.827Z,4.65
2023-08-27T16:46:12.910Z,5.32
2023-08-27T16:49:00.903Z,4.30
2023-08-27T16:51:51.198Z,4.20
2023-08-27T16:54:38.914Z,3.88
2023-08-27T16:57:26.634Z,4.10
2023-08-27T17:00:15.292Z,3.83
2023-08-27T17:03:03.200Z,4.70
2023-08-27T17:05:58.332Z,3.40
2023-08-27T17:08:47.542Z,4.30
2023-08-27T17:11:35.544Z,3.50
2023-08-27T17:14:23.996Z,3.40
2023-08-27T17:17:11.683Z,3.63
2023-08-27T17:19:59.671Z,3.90
2023-08-27T17:22:47.646Z,3.60
2023-08-27T17:25:36.818Z,4.43
2023-08-27T17:28:24.734Z,3.90
2023-08-27T17:31:12.647Z,4.30
2023-08-27T17:34:00.505Z,4.40
2023-08-27T17:36:48.261Z,4.20
2023-08-27T17:39:36.607Z,4.60
2023-08-27T17:42:25.742Z,3.97
2023-08-27T17:45:13.634Z,4.13
2023-08-27T17:48:08.358Z,4.85
2023-08-27T17:50:57.577Z,4.70
2023-08-27T17:53:45.446Z,4.18
2023-08-27T17:56:33.241Z,5.10
2023-08-27T17:59:22.767Z,4.57
2023-08-27T18:02:10.629Z,5.03
2023-08-27T18:04:58.415Z,4.70
2023-08-27T18:07:46.209Z,5.38
2023-08-27T18:10:33.942Z,4.55
2023-08-27T18:13:21.852Z,5.15
2023-08-27T18:16:13.889Z,6.55
2023-08-27T18:19:01.783Z,7.50
2023-08-27T18:21:49.616Z,6.68
2023-08-27T18:24:37.413Z,7.30
2023-08-27T18:27:25.703Z,7.05
2023-08-27T18:30:14.575Z,7.45
2023-08-27T18:33:04.386Z,4.85
2023-08-27T18:35:52.594Z,5.55
2023-08-27T18:38:40.586Z,5.63
2023-08-27T18:41:28.395Z,6.88
2023-08-27T18:44:16.312Z,6.80
2023-08-27T18:47:04.118Z,6.10
2023-08-27T18:49:53.411Z,6.45
2023-08-27T18:52:41.387Z,5.55
2023-08-27T18:55:29.205Z,5.80
2023-08-27T18:58:17.440Z,5.68
2023-08-27T19:01:05.417Z,5.38
2023-08-27T19:03:55.952Z,5.20
2023-08-27T19:06:45.222Z,5.68
2023-08-27T19:09:33.396Z,5.65
2023-08-27T19:12:21.585Z,5.10
2023-08-27T19:15:10.148Z,5.22
2023-08-27T19:17:58.140Z,5.63
2023-08-27T19:20:52.025Z,5.60
2023-08-27T19:23:41.449Z,5.40
2023-08-27T19:26:29.584Z,5.28
2023-08-27T19:29:17.451Z,5.30
2023-08-27T19:32:05.845Z,5.50
2023-08-27T19:34:53.704Z,6.25
2023-08-27T19:37:41.535Z,6.05
2023-08-27T19:40:30.796Z,5.78
2023-08-27T19:43:18.609Z,5.55
2023-08-27T19:46:06.492Z,5.78
2023-08-27T19:48:55.118Z,5.03
2023-08-27T19:51:44.379Z,5.20
2023-08-27T19:54:32.896Z,5.43
2023-08-27T19:57:22.187Z,5.60
2023-08-27T20:00:11.083Z,5.68
2023-08-27T20:02:58.853Z,5.38
2023-08-27T20:05:46.787Z,5.63
2023-08-27T20:08:34.580Z,4.90
2023-08-27T20:11:22.524Z,5.32
2023-08-27T20:14:11.616Z,4.55
2023-08-27T20:16:59.534Z,4.53
2023-08-27T20:19:47.813Z,4.72
2023-08-27T20:22:35.642Z,5.10
2023-08-27T20:25:23.332Z,4.93
2023-08-27T20:28:11.054Z,5.35
2023-08-27T20:31:00.306Z,8.73
2023-08-27T20:33:48.070Z,5.80
2023-08-27T20:36:36.075Z,6.57
2023-08-27T20:39:24.047Z,4.95
2023-08-27T20:42:11.877Z,5.55
2023-08-27T20:45:00.304Z,5.93
2023-08-27T20:47:49.477Z,5.05
2023-08-27T20:50:37.525Z,5.43
2023-08-27T20:53:25.321Z,5.10
2023-08-27T20:56:13.302Z,5.45
2023-08-27T20:59:01.023Z,5.95
2023-08-27T21:01:48.914Z,5.95
2023-08-27T21:04:38.242Z,5.90
2023-08-27T21:07:25.928Z,7.07
2023-08-27T21:10:13.596Z,5.82
2023-08-27T21:13:01.664Z,5.47
2023-08-27T21:15:49.756Z,6.03
2023-08-27T21:18:37.482Z,5.72
2023-08-27T21:21:26.760Z,5.88
2023-08-27T21:24:15.985Z,7.47
2023-08-27T21:27:04.025Z,5.03
2023-08-27T21:29:53.435Z,6.22
2023-08-27T21:32:41.412Z,5.35
2023-08-27T21:35:29.447Z,5.25
2023-08-27T21:38:18.601Z,5.60
2023-08-27T21:41:06.630Z,5.70
2023-08-27T21:43:54.292Z,5.65
2023-08-27T21:46:42.116Z,5.95
2023-08-27T21:49:29.808Z,5.90
2023-08-27T21:52:17.497Z,5.22
2023-08-27T21:55:07.829Z,5.70
2023-08-27T21:57:56.706Z,6.07
2023-08-27T22:00:44.861Z,5.70
2023-08-27T22:03:32.728Z,5.95
2023-08-27T22:06:20.876Z,4.93
2023-08-27T22:09:08.983Z,5.18
2023-08-27T22:11:58.130Z,4.80
2023-08-27T22:14:46.419Z,5.88
2023-08-27T22:17:34.110Z,5.10
2023-08-27T22:20:22.785Z,5.00
2023-08-27T22:23:10.484Z,5.53
2023-08-27T22:25:58.302Z,5.18
2023-08-27T22:28:47.404Z,4.95
2023-08-27T22:31:35.064Z,5.15
2023-08-27T22:34:22.882Z,5.15
2023-08-27T22:37:10.656Z,5.10
2023-08-27T22:39:58.459Z,6.13
2023-08-27T22:42:46.023Z,5.45
2023-08-27T22:45:35.349Z,5.38
2023-08-27T22:48:22.998Z,5.72
2023-08-27T22:51:10.974Z,5.80
2023-08-27T22:53:58.703Z,5.65
2023-08-27T22:56:46.415Z,5.25
2023-08-27T22:59:34.149Z,5.97
2023-08-27T23:02:24.586Z,6.65
2023-08-27T23:05:12.603Z,5.72
2023-08-27T23:08:00.371Z,4.88
2023-08-27T23:10:48.280Z,6.25
2023-08-27T23:13:36.124Z,5.43
2023-08-27T23:16:25.225Z,6.30
2023-08-27T23:19:14.291Z,5.43
2023-08-27T23:22:02.310Z,4.95
2023-08-27T23:24:50.245Z,5.38
2023-08-27T23:27:37.959Z,5.75
2023-08-27T23:30:26.032Z,5.50
2023-08-27T23:33:13.706Z,5.30
2023-08-27T23:36:02.912Z,5.28
2023-08-27T23:38:50.588Z,5.50
2023-08-27T23:41:38.297Z,5.28
2023-08-27T23:44:26.278Z,6.10
2023-08-27T23:47:14.272Z,5.60
2023-08-27T23:50:02.082Z,4.82
2023-08-27T23:52:51.157Z,5.38
2023-08-27T23:55:39.174Z,6.55
2023-08-27T23:58:26.874Z,4.95
